EGPF/GLA METAR and TAF weather

Enter ICAO airport designator
Station Type Date Time Source
EGPF METAR 2021/05/10 01:20 UTC NOAA

EGPF 100120Z AUTO 08004KT 9999 BKN028 BKN032 OVC044 10/07 Q0990


Station Type Date Time Source
EGPF Decoded METAR 2021/05/10 01:20 UTC NOAA

Glasgow Airport, United Kingdom (EGPF) 55-52N 004-26W 0M
May 09, 2021 - 09:20 PM EDT / 2021.05.10 0120 UTC
Wind: from the E (080 degrees) at 5 MPH (4 KT):0
Visibility: greater than 7 mile(s):0
Sky conditions: overcast
Temperature: 50 F (10 C)
Dew Point: 44 F (7 C)
Relative Humidity: 81%
Pressure (altimeter): 29.23 in. Hg (0990 hPa)
ob: EGPF 100120Z AUTO 08004KT 9999 BKN028 BKN032 OVC044 10/07 Q0990
cycle: 1

Station Type Date Time Source
EGPF TAF 2021/05/09 18:09 UTC NOAA

TAF EGPF 091657Z 0918/1018 16012KT 9999 SCT020 BKN040
BECMG 0922/1001 10006KT
TEMPO 1005/1018 7000 -SHRA
BECMG 1007/1010 17012KT PROB40
TEMPO 1010/1018 18015G25KT 4000 SHRA

Example: see airport list